Hauptseite
METAR-TAF:

METAR-TAF

Flughäfen :

Flughafen Palma de Mallorca

Palma, Spanien

Breite: 39-33N, Länge: 002-44E, Höhe: 4 m

Beobachtung

Neuester Wetterbericht von vor 36 Minuten, um 22:30 UTC
Wind 2 kt aus Nordost
Temperatur 14°C
Luftfeuchtigkeit 72%
Luftdruck 1020 hPa
Sichtweite 10 km oder mehr
Leicht bewölkt in der Höhe von 2300 ft

METAR: LEPA 142230Z 05002KT 9999 FEW023 14/09 Q1020 NOSIG

Zeit: 01:06 (23:06 UTC)

Prognose

Neuester Wetterbericht von vor 6 Stunden und 6 Minuten, um 17:00 UTC
Gültige Prognose vom 14 um 18 UTC bis 15 um 18 UTC
Wind 10 kt aus Südwest
Sichtweite 10 km oder mehr
Durchbrochene Bewölkung in der Höhe von 4000 ft
Übergehend zu
vom 14 um 18 UTC bis 14 um 20 UTC
Wind 4 kt aus Nordost
Übergehend zu
vom 15 um 08 UTC bis 15 um 10 UTC
Wind 14 kt aus Nordost

TAF: LEPA 141700Z 1418/1518 22010KT 9999 BKN040 TX17/1512Z TN08/1506Z BECMG 1418/1420 05004KT BECMG 1508/1510 05014KT

Wetterbeobachtungen und Prognosen von mehr als 4000 Flughäfen (METAR und TAF Bericht).

Die verfügbaren Stationen werden durch gelbe und rote Markierungen auf der Karte dargestellt.

Führen Sie die Maus auf sie, um den Namen der Station zu sehen.

Darauf klicken, um die Beobachtung von Wetterbeobachtungen und Prognosen zu sehen.

Um die Karte zu ändern : klicken Sie auf den grünen Tasten mit einem schwarzen Kreuz Zum Vergrößern, auf den grünen Button mit einem Gedankenstrich zu verkleinern, oder auf die grünen Pfeile für benachbarte Karten.


METAR-TAF: